sensor_id;sensor_type;location;lat;lon;timestamp;temperature;humidity
8261;DHT22;64115;50.170;8.242;2023-03-03T00:00:44;0.50;99.90
8261;DHT22;64115;50.170;8.242;2023-03-03T00:03:14;0.40;99.90
8261;DHT22;64115;50.170;8.242;2023-03-03T00:05:42;0.40;99.90
8261;DHT22;64115;50.170;8.242;2023-03-03T00:08:09;0.40;99.90
8261;DHT22;64115;50.170;8.242;2023-03-03T00:10:37;0.40;99.90
8261;DHT22;64115;50.170;8.242;2023-03-03T00:13:10;0.40;99.90
8261;DHT22;64115;50.170;8.242;2023-03-03T00:15:39;0.30;99.90
8261;DHT22;64115;50.170;8.242;2023-03-03T00:18:18;0.10;99.90
8261;DHT22;64115;50.170;8.242;2023-03-03T00:20:48;0.00;99.90
8261;DHT22;64115;50.170;8.242;2023-03-03T00:23:22;0.00;99.90
8261;DHT22;64115;50.170;8.242;2023-03-03T00:25:50;0.10;99.90
8261;DHT22;64115;50.170;8.242;2023-03-03T00:28:23;0.00;99.90
8261;DHT22;64115;50.170;8.242;2023-03-03T00:30:51;0.00;99.90
8261;DHT22;64115;50.170;8.242;2023-03-03T00:33:24;0.00;99.90
8261;DHT22;64115;50.170;8.242;2023-03-03T00:35:54;-0.10;99.90
8261;DHT22;64115;50.170;8.242;2023-03-03T00:38:22;-0.20;99.90
8261;DHT22;64115;50.170;8.242;2023-03-03T00:40:49;-0.20;99.90
8261;DHT22;64115;50.170;8.242;2023-03-03T00:43:21;-0.30;99.90
8261;DHT22;64115;50.170;8.242;2023-03-03T00:45:50;-0.30;99.90
8261;DHT22;64115;50.170;8.242;2023-03-03T00:48:27;-0.30;99.90
8261;DHT22;64115;50.170;8.242;2023-03-03T00:50:55;-0.20;99.90
8261;DHT22;64115;50.170;8.242;2023-03-03T00:53:24;0.00;99.90
8261;DHT22;64115;50.170;8.242;2023-03-03T00:55:52;-0.10;99.90
8261;DHT22;64115;50.170;8.242;2023-03-03T00:58:19;-0.20;99.90
8261;DHT22;64115;50.170;8.242;2023-03-03T01:00:47;-0.20;99.90
8261;DHT22;64115;50.170;8.242;2023-03-03T01:03:16;-0.20;99.90
8261;DHT22;64115;50.170;8.242;2023-03-03T01:05:45;-0.30;99.90
8261;DHT22;64115;50.170;8.242;2023-03-03T01:08:12;-0.30;99.90
8261;DHT22;64115;50.170;8.242;2023-03-03T01:10:43;-0.40;99.90
8261;DHT22;64115;50.170;8.242;2023-03-03T01:13:11;-0.40;99.90
8261;DHT22;64115;50.170;8.242;2023-03-03T01:15:39;-0.40;99.90
8261;DHT22;64115;50.170;8.242;2023-03-03T01:18:07;-0.50;99.90
8261;DHT22;64115;50.170;8.242;2023-03-03T01:20:35;-0.40;99.90
8261;DHT22;64115;50.170;8.242;2023-03-03T01:23:04;-0.30;99.90
8261;DHT22;64115;50.170;8.242;2023-03-03T01:25:31;-0.40;99.90
8261;DHT22;64115;50.170;8.242;2023-03-03T01:27:58;-0.50;99.90
8261;DHT22;64115;50.170;8.242;2023-03-03T01:30:25;-0.60;99.90
8261;DHT22;64115;50.170;8.242;2023-03-03T01:32:52;-0.70;99.90
8261;DHT22;64115;50.170;8.242;2023-03-03T01:35:20;-0.70;99.90
8261;DHT22;64115;50.170;8.242;2023-03-03T01:37:47;-0.70;99.90
8261;DHT22;64115;50.170;8.242;2023-03-03T01:40:20;-0.70;99.90
8261;DHT22;64115;50.170;8.242;2023-03-03T01:42:48;-0.80;99.90
8261;DHT22;64115;50.170;8.242;2023-03-03T01:45:17;-0.80;99.90
8261;DHT22;64115;50.170;8.242;2023-03-03T01:47:50;-0.80;99.90
8261;DHT22;64115;50.170;8.242;2023-03-03T01:50:27;-0.90;99.90
8261;DHT22;64115;50.170;8.242;2023-03-03T01:52:57;-1.00;99.90
8261;DHT22;64115;50.170;8.242;2023-03-03T01:55:31;-1.00;99.90
8261;DHT22;64115;50.170;8.242;2023-03-03T01:58:02;-1.00;99.90
8261;DHT22;64115;50.170;8.242;2023-03-03T02:00:32;-1.00;99.90
8261;DHT22;64115;50.170;8.242;2023-03-03T02:03:00;-1.00;99.90
8261;DHT22;64115;50.170;8.242;2023-03-03T02:05:28;-1.10;99.90
8261;DHT22;64115;50.170;8.242;2023-03-03T02:07:55;-1.10;99.90
8261;DHT22;64115;50.170;8.242;2023-03-03T02:10:23;-1.10;99.90
8261;DHT22;64115;50.170;8.242;2023-03-03T02:12:52;-1.10;99.90
8261;DHT22;64115;50.170;8.242;2023-03-03T02:15:22;-1.10;99.90
8261;DHT22;64115;50.170;8.242;2023-03-03T02:17:52;-1.00;99.90
8261;DHT22;64115;50.170;8.242;2023-03-03T02:20:28;-1.10;99.90
8261;DHT22;64115;50.170;8.242;2023-03-03T02:23:03;-1.10;99.90
8261;DHT22;64115;50.170;8.242;2023-03-03T02:25:38;-1.20;99.90
8261;DHT22;64115;50.170;8.242;2023-03-03T02:28:10;-1.20;99.90
8261;DHT22;64115;50.170;8.242;2023-03-03T02:30:38;-1.20;99.90
8261;DHT22;64115;50.170;8.242;2023-03-03T02:33:05;-1.20;99.90
8261;DHT22;64115;50.170;8.242;2023-03-03T02:35:34;-1.20;99.90
8261;DHT22;64115;50.170;8.242;2023-03-03T02:38:08;-1.20;99.90
8261;DHT22;64115;50.170;8.242;2023-03-03T02:40:41;-1.10;99.90
8261;DHT22;64115;50.170;8.242;2023-03-03T02:43:11;-1.10;99.90
8261;DHT22;64115;50.170;8.242;2023-03-03T02:45:42;-1.10;99.90
8261;DHT22;64115;50.170;8.242;2023-03-03T02:48:09;-1.10;99.90
8261;DHT22;64115;50.170;8.242;2023-03-03T02:50:36;-1.10;99.90
8261;DHT22;64115;50.170;8.242;2023-03-03T02:53:03;-1.10;99.90
8261;DHT22;64115;50.170;8.242;2023-03-03T02:55:30;-1.20;99.90
8261;DHT22;64115;50.170;8.242;2023-03-03T02:57:57;-1.20;99.90
8261;DHT22;64115;50.170;8.242;2023-03-03T03:00:25;-1.20;99.90
8261;DHT22;64115;50.170;8.242;2023-03-03T03:02:52;-1.20;99.90
8261;DHT22;64115;50.170;8.242;2023-03-03T03:05:19;-1.10;99.90
8261;DHT22;64115;50.170;8.242;2023-03-03T03:07:46;-1.20;99.90
8261;DHT22;64115;50.170;8.242;2023-03-03T03:10:14;-1.20;99.90
8261;DHT22;64115;50.170;8.242;2023-03-03T03:12:41;-1.20;99.90
8261;DHT22;64115;50.170;8.242;2023-03-03T03:15:08;-1.20;99.90
8261;DHT22;64115;50.170;8.242;2023-03-03T03:17:37;-1.30;99.90
8261;DHT22;64115;50.170;8.242;2023-03-03T03:20:05;-1.20;99.90
8261;DHT22;64115;50.170;8.242;2023-03-03T03:22:32;-1.20;99.90
8261;DHT22;64115;50.170;8.242;2023-03-03T03:24:59;-1.20;99.90
8261;DHT22;64115;50.170;8.242;2023-03-03T03:27:26;-1.20;99.90
8261;DHT22;64115;50.170;8.242;2023-03-03T03:29:53;-1.20;99.90
8261;DHT22;64115;50.170;8.242;2023-03-03T03:32:20;-1.20;99.90
8261;DHT22;64115;50.170;8.242;2023-03-03T03:34:48;-1.20;99.90
8261;DHT22;64115;50.170;8.242;2023-03-03T03:37:15;-1.20;99.90
8261;DHT22;64115;50.170;8.242;2023-03-03T03:39:42;-1.20;99.90
8261;DHT22;64115;50.170;8.242;2023-03-03T03:42:09;-1.20;99.90
8261;DHT22;64115;50.170;8.242;2023-03-03T03:44:37;-1.20;99.90
8261;DHT22;64115;50.170;8.242;2023-03-03T03:47:04;-1.20;99.90
8261;DHT22;64115;50.170;8.242;2023-03-03T03:49:31;-1.30;99.90
8261;DHT22;64115;50.170;8.242;2023-03-03T03:51:59;-1.30;99.90
8261;DHT22;64115;50.170;8.242;2023-03-03T03:54:26;-1.30;99.90
8261;DHT22;64115;50.170;8.242;2023-03-03T03:56:53;-1.30;99.90
8261;DHT22;64115;50.170;8.242;2023-03-03T03:59:20;-1.30;99.90
8261;DHT22;64115;50.170;8.242;2023-03-03T04:01:47;-1.40;99.90
8261;DHT22;64115;50.170;8.242;2023-03-03T04:04:15;-1.40;99.90
8261;DHT22;64115;50.170;8.242;2023-03-03T04:06:42;-1.50;99.90
8261;DHT22;64115;50.170;8.242;2023-03-03T04:09:10;-1.50;99.90
8261;DHT22;64115;50.170;8.242;2023-03-03T04:11:37;-1.40;99.90
8261;DHT22;64115;50.170;8.242;2023-03-03T04:14:04;-1.40;99.90
8261;DHT22;64115;50.170;8.242;2023-03-03T04:16:31;-1.40;99.90
8261;DHT22;64115;50.170;8.242;2023-03-03T04:18:58;-1.50;99.90
8261;DHT22;64115;50.170;8.242;2023-03-03T04:21:25;-1.50;99.90
8261;DHT22;64115;50.170;8.242;2023-03-03T04:23:52;-1.50;99.90
8261;DHT22;64115;50.170;8.242;2023-03-03T04:26:20;-1.50;99.90
8261;DHT22;64115;50.170;8.242;2023-03-03T04:28:47;-1.50;99.90
8261;DHT22;64115;50.170;8.242;2023-03-03T04:31:14;-1.60;99.90
8261;DHT22;64115;50.170;8.242;2023-03-03T04:33:41;-1.60;99.90
8261;DHT22;64115;50.170;8.242;2023-03-03T04:36:09;-1.50;99.90
8261;DHT22;64115;50.170;8.242;2023-03-03T04:38:36;-1.60;99.90
8261;DHT22;64115;50.170;8.242;2023-03-03T04:41:03;-1.60;99.90
8261;DHT22;64115;50.170;8.242;2023-03-03T04:43:32;-1.60;99.90
8261;DHT22;64115;50.170;8.242;2023-03-03T04:45:59;-1.60;99.90
8261;DHT22;64115;50.170;8.242;2023-03-03T04:48:26;-1.70;99.90
8261;DHT22;64115;50.170;8.242;2023-03-03T04:50:53;-1.70;99.90
8261;DHT22;64115;50.170;8.242;2023-03-03T04:53:20;-1.70;99.90
8261;DHT22;64115;50.170;8.242;2023-03-03T04:55:50;-1.70;99.90
8261;DHT22;64115;50.170;8.242;2023-03-03T04:58:17;-1.70;99.90
8261;DHT22;64115;50.170;8.242;2023-03-03T05:00:46;-1.80;99.90
8261;DHT22;64115;50.170;8.242;2023-03-03T05:03:14;-2.00;99.90
8261;DHT22;64115;50.170;8.242;2023-03-03T05:05:41;-2.20;99.90
8261;DHT22;64115;50.170;8.242;2023-03-03T05:08:08;-2.30;99.90
8261;DHT22;64115;50.170;8.242;2023-03-03T05:10:35;-2.30;99.90
8261;DHT22;64115;50.170;8.242;2023-03-03T05:13:02;-2.40;99.90
8261;DHT22;64115;50.170;8.242;2023-03-03T05:15:29;-2.50;99.90
8261;DHT22;64115;50.170;8.242;2023-03-03T05:17:57;-2.50;99.90
8261;DHT22;64115;50.170;8.242;2023-03-03T05:20:25;-2.50;99.90
8261;DHT22;64115;50.170;8.242;2023-03-03T05:22:52;-2.60;99.90
8261;DHT22;64115;50.170;8.242;2023-03-03T05:25:21;-2.60;99.90
8261;DHT22;64115;50.170;8.242;2023-03-03T05:27:48;-2.60;99.90
8261;DHT22;64115;50.170;8.242;2023-03-03T05:30:15;-2.70;99.90
8261;DHT22;64115;50.170;8.242;2023-03-03T05:32:42;-2.60;99.90
8261;DHT22;64115;50.170;8.242;2023-03-03T05:35:10;-2.60;99.90
8261;DHT22;64115;50.170;8.242;2023-03-03T05:37:37;-2.60;99.90
8261;DHT22;64115;50.170;8.242;2023-03-03T05:40:08;-2.60;99.90
8261;DHT22;64115;50.170;8.242;2023-03-03T05:42:35;-2.60;99.90
8261;DHT22;64115;50.170;8.242;2023-03-03T05:45:03;-2.60;99.90
8261;DHT22;64115;50.170;8.242;2023-03-03T05:47:30;-2.60;99.90
8261;DHT22;64115;50.170;8.242;2023-03-03T05:49:57;-2.60;99.90
8261;DHT22;64115;50.170;8.242;2023-03-03T05:52:26;-2.60;99.90
8261;DHT22;64115;50.170;8.242;2023-03-03T05:54:54;-2.60;99.90
8261;DHT22;64115;50.170;8.242;2023-03-03T05:57:21;-2.60;99.90
8261;DHT22;64115;50.170;8.242;2023-03-03T05:59:48;-2.60;99.90
8261;DHT22;64115;50.170;8.242;2023-03-03T06:02:15;-2.60;99.90
8261;DHT22;64115;50.170;8.242;2023-03-03T06:04:42;-2.60;99.90
8261;DHT22;64115;50.170;8.242;2023-03-03T06:07:09;-2.60;99.90
8261;DHT22;64115;50.170;8.242;2023-03-03T06:09:38;-2.60;99.90
8261;DHT22;64115;50.170;8.242;2023-03-03T06:12:05;-2.70;99.90
8261;DHT22;64115;50.170;8.242;2023-03-03T06:14:32;-2.70;99.90
8261;DHT22;64115;50.170;8.242;2023-03-03T06:16:59;-2.70;99.90
8261;DHT22;64115;50.170;8.242;2023-03-03T06:19:26;-2.70;99.90
8261;DHT22;64115;50.170;8.242;2023-03-03T06:21:54;-2.60;99.90
8261;DHT22;64115;50.170;8.242;2023-03-03T06:24:21;-2.60;99.90
8261;DHT22;64115;50.170;8.242;2023-03-03T06:26:51;-2.50;99.90
8261;DHT22;64115;50.170;8.242;2023-03-03T06:29:18;-2.40;99.90
8261;DHT22;64115;50.170;8.242;2023-03-03T06:31:45;-2.20;99.90
8261;DHT22;64115;50.170;8.242;2023-03-03T06:34:12;-2.10;99.90
8261;DHT22;64115;50.170;8.242;2023-03-03T06:36:39;-2.00;99.90
8261;DHT22;64115;50.170;8.242;2023-03-03T06:39:06;-1.80;99.90
8261;DHT22;64115;50.170;8.242;2023-03-03T06:41:33;-1.80;99.90
8261;DHT22;64115;50.170;8.242;2023-03-03T06:44:01;-1.70;99.90
8261;DHT22;64115;50.170;8.242;2023-03-03T06:46:28;-1.60;99.90
8261;DHT22;64115;50.170;8.242;2023-03-03T06:48:55;-1.50;99.90
8261;DHT22;64115;50.170;8.242;2023-03-03T06:51:24;-1.40;99.90
8261;DHT22;64115;50.170;8.242;2023-03-03T06:53:55;-1.30;99.90
8261;DHT22;64115;50.170;8.242;2023-03-03T06:56:23;-1.30;99.90
8261;DHT22;64115;50.170;8.242;2023-03-03T06:58:53;-1.20;99.90
8261;DHT22;64115;50.170;8.242;2023-03-03T07:01:22;-1.10;99.90
8261;DHT22;64115;50.170;8.242;2023-03-03T07:03:48;-1.00;99.90
8261;DHT22;64115;50.170;8.242;2023-03-03T07:06:21;-0.90;99.90
8261;DHT22;64115;50.170;8.242;2023-03-03T07:08:49;-0.90;99.90
8261;DHT22;64115;50.170;8.242;2023-03-03T07:11:18;-0.90;99.90
8261;DHT22;64115;50.170;8.242;2023-03-03T07:13:47;-0.90;99.90
8261;DHT22;64115;50.170;8.242;2023-03-03T07:16:16;-0.80;99.90
8261;DHT22;64115;50.170;8.242;2023-03-03T07:18:49;-0.70;99.90
8261;DHT22;64115;50.170;8.242;2023-03-03T07:21:18;-0.70;99.90
8261;DHT22;64115;50.170;8.242;2023-03-03T07:23:47;-0.60;99.90
8261;DHT22;64115;50.170;8.242;2023-03-03T07:26:16;-0.60;99.90
8261;DHT22;64115;50.170;8.242;2023-03-03T07:28:50;-0.60;99.90
8261;DHT22;64115;50.170;8.242;2023-03-03T07:31:33;-0.60;99.90
8261;DHT22;64115;50.170;8.242;2023-03-03T07:34:04;-0.70;99.90
8261;DHT22;64115;50.170;8.242;2023-03-03T07:36:40;-1.00;99.90
8261;DHT22;64115;50.170;8.242;2023-03-03T07:39:20;-1.20;99.90
8261;DHT22;64115;50.170;8.242;2023-03-03T07:41:49;-1.20;99.90
8261;DHT22;64115;50.170;8.242;2023-03-03T07:44:20;-1.30;99.90
8261;DHT22;64115;50.170;8.242;2023-03-03T07:46:47;-1.30;99.90
8261;DHT22;64115;50.170;8.242;2023-03-03T07:49:27;-1.30;99.90
8261;DHT22;64115;50.170;8.242;2023-03-03T07:52:00;-1.30;99.90
8261;DHT22;64115;50.170;8.242;2023-03-03T07:54:35;-1.30;99.90
8261;DHT22;64115;50.170;8.242;2023-03-03T07:57:13;-1.20;99.90
8261;DHT22;64115;50.170;8.242;2023-03-03T07:59:45;-1.10;99.90
8261;DHT22;64115;50.170;8.242;2023-03-03T08:02:32;-1.00;99.90
8261;DHT22;64115;50.170;8.242;2023-03-03T08:05:26;-1.00;99.90
8261;DHT22;64115;50.170;8.242;2023-03-03T08:08:02;-1.00;99.90
8261;DHT22;64115;50.170;8.242;2023-03-03T08:10:40;-1.00;99.90
8261;DHT22;64115;50.170;8.242;2023-03-03T08:13:15;-0.80;99.90
8261;DHT22;64115;50.170;8.242;2023-03-03T08:15:44;-0.80;99.90
8261;DHT22;64115;50.170;8.242;2023-03-03T08:18:21;-0.80;99.90
8261;DHT22;64115;50.170;8.242;2023-03-03T08:20:52;-0.60;99.90
8261;DHT22;64115;50.170;8.242;2023-03-03T08:23:21;-0.40;99.90
8261;DHT22;64115;50.170;8.242;2023-03-03T08:25:49;-0.30;99.90
8261;DHT22;64115;50.170;8.242;2023-03-03T08:28:17;-0.30;99.90
8261;DHT22;64115;50.170;8.242;2023-03-03T08:30:44;-0.50;99.90
8261;DHT22;64115;50.170;8.242;2023-03-03T08:33:12;-0.50;99.90
8261;DHT22;64115;50.170;8.242;2023-03-03T08:35:39;-0.50;99.90
8261;DHT22;64115;50.170;8.242;2023-03-03T08:38:08;-0.40;99.90
8261;DHT22;64115;50.170;8.242;2023-03-03T08:40:36;-0.50;99.90
8261;DHT22;64115;50.170;8.242;2023-03-03T08:43:04;-0.40;99.90
8261;DHT22;64115;50.170;8.242;2023-03-03T08:45:31;-0.20;99.90
8261;DHT22;64115;50.170;8.242;2023-03-03T08:47:59;-0.20;99.90
8261;DHT22;64115;50.170;8.242;2023-03-03T08:50:27;-0.20;99.90
8261;DHT22;64115;50.170;8.242;2023-03-03T08:52:55;-0.20;99.90
8261;DHT22;64115;50.170;8.242;2023-03-03T08:55:24;-0.40;99.90
8261;DHT22;64115;50.170;8.242;2023-03-03T08:57:51;-0.40;99.90
8261;DHT22;64115;50.170;8.242;2023-03-03T09:00:18;-0.30;99.90
8261;DHT22;64115;50.170;8.242;2023-03-03T09:02:46;-0.20;99.90
8261;DHT22;64115;50.170;8.242;2023-03-03T09:05:14;-0.10;99.90
8261;DHT22;64115;50.170;8.242;2023-03-03T09:07:42;-0.10;99.90
8261;DHT22;64115;50.170;8.242;2023-03-03T09:10:11;0.00;99.90
8261;DHT22;64115;50.170;8.242;2023-03-03T09:12:41;0.10;99.90
8261;DHT22;64115;50.170;8.242;2023-03-03T09:15:17;0.30;99.90
8261;DHT22;64115;50.170;8.242;2023-03-03T09:17:46;0.20;99.90
8261;DHT22;64115;50.170;8.242;2023-03-03T09:20:30;0.10;99.90
8261;DHT22;64115;50.170;8.242;2023-03-03T09:22:58;0.20;99.90
8261;DHT22;64115;50.170;8.242;2023-03-03T09:25:31;0.30;99.90
8261;DHT22;64115;50.170;8.242;2023-03-03T09:28:00;0.30;99.90
8261;DHT22;64115;50.170;8.242;2023-03-03T09:30:36;0.40;99.90
8261;DHT22;64115;50.170;8.242;2023-03-03T09:33:25;0.60;99.90
8261;DHT22;64115;50.170;8.242;2023-03-03T09:35:56;0.80;99.90
8261;DHT22;64115;50.170;8.242;2023-03-03T09:38:28;0.90;99.90
8261;DHT22;64115;50.170;8.242;2023-03-03T09:41:33;0.90;99.90
8261;DHT22;64115;50.170;8.242;2023-03-03T09:47:08;1.40;99.90
8261;DHT22;64115;50.170;8.242;2023-03-03T09:49:43;1.50;99.90
8261;DHT22;64115;50.170;8.242;2023-03-03T09:52:23;1.30;99.90
8261;DHT22;64115;50.170;8.242;2023-03-03T09:54:58;1.20;99.90
8261;DHT22;64115;50.170;8.242;2023-03-03T09:57:38;1.20;99.90
8261;DHT22;64115;50.170;8.242;2023-03-03T10:00:33;1.20;99.90
8261;DHT22;64115;50.170;8.242;2023-03-03T10:03:36;1.20;99.90
8261;DHT22;64115;50.170;8.242;2023-03-03T10:06:13;1.30;99.90
8261;DHT22;64115;50.170;8.242;2023-03-03T10:08:52;1.30;99.90
8261;DHT22;64115;50.170;8.242;2023-03-03T10:11:29;1.70;99.90
8261;DHT22;64115;50.170;8.242;2023-03-03T10:14:17;2.10;99.90
8261;DHT22;64115;50.170;8.242;2023-03-03T10:17:03;2.10;99.90
8261;DHT22;64115;50.170;8.242;2023-03-03T10:19:44;2.40;99.90
8261;DHT22;64115;50.170;8.242;2023-03-03T10:22:18;2.20;99.90
8261;DHT22;64115;50.170;8.242;2023-03-03T10:25:01;2.00;99.90
8261;DHT22;64115;50.170;8.242;2023-03-03T10:27:44;2.00;99.90
8261;DHT22;64115;50.170;8.242;2023-03-03T10:30:20;2.10;99.90
8261;DHT22;64115;50.170;8.242;2023-03-03T10:32:56;2.40;99.90
8261;DHT22;64115;50.170;8.242;2023-03-03T10:35:41;2.50;99.90
8261;DHT22;64115;50.170;8.242;2023-03-03T10:38:29;2.70;99.90
8261;DHT22;64115;50.170;8.242;2023-03-03T10:41:10;2.70;99.90
8261;DHT22;64115;50.170;8.242;2023-03-03T10:43:53;2.30;99.90
8261;DHT22;64115;50.170;8.242;2023-03-03T10:46:56;2.30;99.90
8261;DHT22;64115;50.170;8.242;2023-03-03T10:49:38;2.20;99.90
8261;DHT22;64115;50.170;8.242;2023-03-03T10:52:24;2.20;99.90
8261;DHT22;64115;50.170;8.242;2023-03-03T10:58:30;2.20;99.90
8261;DHT22;64115;50.170;8.242;2023-03-03T11:01:08;2.50;99.90
8261;DHT22;64115;50.170;8.242;2023-03-03T11:06:44;2.50;99.90
8261;DHT22;64115;50.170;8.242;2023-03-03T11:09:30;2.40;99.90
8261;DHT22;64115;50.170;8.242;2023-03-03T11:12:11;2.50;99.90
8261;DHT22;64115;50.170;8.242;2023-03-03T11:14:44;2.60;99.90
8261;DHT22;64115;50.170;8.242;2023-03-03T11:17:16;2.50;99.90
8261;DHT22;64115;50.170;8.242;2023-03-03T11:19:59;2.60;99.90
8261;DHT22;64115;50.170;8.242;2023-03-03T11:22:39;2.60;99.90
8261;DHT22;64115;50.170;8.242;2023-03-03T11:25:19;2.60;99.90
8261;DHT22;64115;50.170;8.242;2023-03-03T11:30:49;2.70;99.90
8261;DHT22;64115;50.170;8.242;2023-03-03T11:33:24;2.80;99.90
8261;DHT22;64115;50.170;8.242;2023-03-03T11:36:06;2.90;99.90
8261;DHT22;64115;50.170;8.242;2023-03-03T11:38:46;3.10;99.90
8261;DHT22;64115;50.170;8.242;2023-03-03T11:41:25;3.10;99.90
8261;DHT22;64115;50.170;8.242;2023-03-03T11:43:57;3.00;99.90
8261;DHT22;64115;50.170;8.242;2023-03-03T11:46:31;3.30;99.90
8261;DHT22;64115;50.170;8.242;2023-03-03T11:49:03;3.40;99.90
8261;DHT22;64115;50.170;8.242;2023-03-03T11:51:43;3.40;99.90
8261;DHT22;64115;50.170;8.242;2023-03-03T11:54:20;3.50;99.90
8261;DHT22;64115;50.170;8.242;2023-03-03T11:56:48;3.60;99.90
8261;DHT22;64115;50.170;8.242;2023-03-03T11:59:48;3.70;99.90
8261;DHT22;64115;50.170;8.242;2023-03-03T12:02:31;3.80;99.90
8261;DHT22;64115;50.170;8.242;2023-03-03T12:05:07;3.90;99.90
8261;DHT22;64115;50.170;8.242;2023-03-03T12:07:44;4.10;99.90
8261;DHT22;64115;50.170;8.242;2023-03-03T12:10:23;4.10;99.90
8261;DHT22;64115;50.170;8.242;2023-03-03T12:13:00;4.10;99.90
8261;DHT22;64115;50.170;8.242;2023-03-03T12:15:32;4.10;99.90
8261;DHT22;64115;50.170;8.242;2023-03-03T12:18:34;4.20;99.90
8261;DHT22;64115;50.170;8.242;2023-03-03T12:21:18;4.30;99.90
8261;DHT22;64115;50.170;8.242;2023-03-03T12:24:04;4.40;99.90
8261;DHT22;64115;50.170;8.242;2023-03-03T12:26:41;4.50;99.90
8261;DHT22;64115;50.170;8.242;2023-03-03T12:29:23;4.50;99.90
8261;DHT22;64115;50.170;8.242;2023-03-03T12:31:54;4.60;99.90
8261;DHT22;64115;50.170;8.242;2023-03-03T12:34:32;4.80;99.90
8261;DHT22;64115;50.170;8.242;2023-03-03T12:37:14;4.90;99.90
8261;DHT22;64115;50.170;8.242;2023-03-03T12:39:55;5.00;99.90
8261;DHT22;64115;50.170;8.242;2023-03-03T12:42:37;4.70;99.90
8261;DHT22;64115;50.170;8.242;2023-03-03T12:45:18;4.40;99.90
8261;DHT22;64115;50.170;8.242;2023-03-03T12:47:50;4.30;99.90
8261;DHT22;64115;50.170;8.242;2023-03-03T12:50:35;4.20;99.90
8261;DHT22;64115;50.170;8.242;2023-03-03T12:53:15;4.30;99.90
8261;DHT22;64115;50.170;8.242;2023-03-03T12:55:51;4.50;99.90
8261;DHT22;64115;50.170;8.242;2023-03-03T12:58:28;4.40;99.90
8261;DHT22;64115;50.170;8.242;2023-03-03T13:01:08;4.50;99.90
8261;DHT22;64115;50.170;8.242;2023-03-03T13:03:43;4.60;99.90
8261;DHT22;64115;50.170;8.242;2023-03-03T13:06:18;4.60;99.90
8261;DHT22;64115;50.170;8.242;2023-03-03T13:11:53;4.70;99.90
8261;DHT22;64115;50.170;8.242;2023-03-03T13:14:28;4.70;99.90
8261;DHT22;64115;50.170;8.242;2023-03-03T13:17:04;4.70;99.90
8261;DHT22;64115;50.170;8.242;2023-03-03T13:19:39;4.60;99.90
8261;DHT22;64115;50.170;8.242;2023-03-03T13:22:11;4.60;99.90
8261;DHT22;64115;50.170;8.242;2023-03-03T13:24:48;4.50;99.90
8261;DHT22;64115;50.170;8.242;2023-03-03T13:27:20;4.50;99.90
8261;DHT22;64115;50.170;8.242;2023-03-03T13:29:55;4.60;99.90
8261;DHT22;64115;50.170;8.242;2023-03-03T13:32:29;4.80;99.90
8261;DHT22;64115;50.170;8.242;2023-03-03T13:35:03;4.90;99.90
8261;DHT22;64115;50.170;8.242;2023-03-03T13:37:35;5.00;99.90
8261;DHT22;64115;50.170;8.242;2023-03-03T13:40:15;5.00;99.90
8261;DHT22;64115;50.170;8.242;2023-03-03T13:42:45;5.20;99.90
8261;DHT22;64115;50.170;8.242;2023-03-03T13:45:19;5.20;99.90
8261;DHT22;64115;50.170;8.242;2023-03-03T13:47:55;5.00;99.90
8261;DHT22;64115;50.170;8.242;2023-03-03T13:50:29;5.10;99.90
8261;DHT22;64115;50.170;8.242;2023-03-03T13:53:22;5.20;99.90
8261;DHT22;64115;50.170;8.242;2023-03-03T13:55:59;5.00;99.90
8261;DHT22;64115;50.170;8.242;2023-03-03T13:58:32;5.00;99.90
8261;DHT22;64115;50.170;8.242;2023-03-03T14:01:10;5.10;99.90
8261;DHT22;64115;50.170;8.242;2023-03-03T14:03:47;5.30;99.90
8261;DHT22;64115;50.170;8.242;2023-03-03T14:06:21;5.30;99.90
8261;DHT22;64115;50.170;8.242;2023-03-03T14:09:04;5.30;99.90
8261;DHT22;64115;50.170;8.242;2023-03-03T14:11:39;5.20;99.90
8261;DHT22;64115;50.170;8.242;2023-03-03T14:14:18;5.20;99.90
8261;DHT22;64115;50.170;8.242;2023-03-03T14:16:53;5.20;99.90
8261;DHT22;64115;50.170;8.242;2023-03-03T14:19:25;5.30;99.90
8261;DHT22;64115;50.170;8.242;2023-03-03T14:22:05;5.30;99.90
8261;DHT22;64115;50.170;8.242;2023-03-03T14:24:58;5.30;99.90
8261;DHT22;64115;50.170;8.242;2023-03-03T14:27:28;5.20;99.90
8261;DHT22;64115;50.170;8.242;2023-03-03T14:29:58;5.20;99.90
8261;DHT22;64115;50.170;8.242;2023-03-03T14:32:27;5.10;99.90
8261;DHT22;64115;50.170;8.242;2023-03-03T14:34:58;5.10;99.90
8261;DHT22;64115;50.170;8.242;2023-03-03T14:37:28;5.10;99.90
8261;DHT22;64115;50.170;8.242;2023-03-03T14:42:47;5.30;99.90
8261;DHT22;64115;50.170;8.242;2023-03-03T14:45:30;5.30;99.90
8261;DHT22;64115;50.170;8.242;2023-03-03T14:48:09;5.20;99.90
8261;DHT22;64115;50.170;8.242;2023-03-03T14:50:38;5.30;99.90
8261;DHT22;64115;50.170;8.242;2023-03-03T14:53:14;5.30;99.90
8261;DHT22;64115;50.170;8.242;2023-03-03T14:55:43;5.20;99.90
8261;DHT22;64115;50.170;8.242;2023-03-03T14:58:32;5.20;99.90
8261;DHT22;64115;50.170;8.242;2023-03-03T15:01:12;5.10;99.90
8261;DHT22;64115;50.170;8.242;2023-03-03T15:03:46;5.10;99.90
8261;DHT22;64115;50.170;8.242;2023-03-03T15:06:28;5.10;99.90
8261;DHT22;64115;50.170;8.242;2023-03-03T15:08:55;5.00;99.90
8261;DHT22;64115;50.170;8.242;2023-03-03T15:11:27;5.00;99.90
8261;DHT22;64115;50.170;8.242;2023-03-03T15:14:11;5.00;99.90
8261;DHT22;64115;50.170;8.242;2023-03-03T15:16:40;4.80;99.90
8261;DHT22;64115;50.170;8.242;2023-03-03T15:19:34;4.70;99.90
8261;DHT22;64115;50.170;8.242;2023-03-03T15:22:10;4.60;99.90
8261;DHT22;64115;50.170;8.242;2023-03-03T15:24:43;4.50;99.90
8261;DHT22;64115;50.170;8.242;2023-03-03T15:27:18;4.40;99.90
8261;DHT22;64115;50.170;8.242;2023-03-03T15:29:54;4.40;99.90
8261;DHT22;64115;50.170;8.242;2023-03-03T15:32:29;4.40;99.90
8261;DHT22;64115;50.170;8.242;2023-03-03T15:35:05;4.40;99.90
8261;DHT22;64115;50.170;8.242;2023-03-03T15:37:45;4.40;99.90
8261;DHT22;64115;50.170;8.242;2023-03-03T15:40:19;4.40;99.90
8261;DHT22;64115;50.170;8.242;2023-03-03T15:43:05;4.40;99.90
8261;DHT22;64115;50.170;8.242;2023-03-03T15:45:42;4.40;99.90
8261;DHT22;64115;50.170;8.242;2023-03-03T15:48:31;4.50;99.90
8261;DHT22;64115;50.170;8.242;2023-03-03T15:51:07;4.50;99.90
8261;DHT22;64115;50.170;8.242;2023-03-03T15:54:05;4.50;99.90
8261;DHT22;64115;50.170;8.242;2023-03-03T15:56:40;4.50;99.90
8261;DHT22;64115;50.170;8.242;2023-03-03T15:59:28;4.50;99.90
8261;DHT22;64115;50.170;8.242;2023-03-03T16:02:08;4.60;99.90
8261;DHT22;64115;50.170;8.242;2023-03-03T16:04:38;4.60;99.90
8261;DHT22;64115;50.170;8.242;2023-03-03T16:07:18;4.60;99.90
8261;DHT22;64115;50.170;8.242;2023-03-03T16:09:57;4.70;99.90
8261;DHT22;64115;50.170;8.242;2023-03-03T16:12:32;4.60;99.90
8261;DHT22;64115;50.170;8.242;2023-03-03T16:15:20;4.60;99.90
8261;DHT22;64115;50.170;8.242;2023-03-03T16:17:57;4.60;99.90
8261;DHT22;64115;50.170;8.242;2023-03-03T16:20:29;4.40;99.90
8261;DHT22;64115;50.170;8.242;2023-03-03T16:23:16;4.40;99.90
8261;DHT22;64115;50.170;8.242;2023-03-03T16:26:21;4.30;99.90
8261;DHT22;64115;50.170;8.242;2023-03-03T16:31:52;4.30;99.90
8261;DHT22;64115;50.170;8.242;2023-03-03T16:34:25;4.30;99.90
8261;DHT22;64115;50.170;8.242;2023-03-03T16:37:02;4.20;99.90
8261;DHT22;64115;50.170;8.242;2023-03-03T16:39:41;4.20;99.90
8261;DHT22;64115;50.170;8.242;2023-03-03T16:42:23;4.20;99.90
8261;DHT22;64115;50.170;8.242;2023-03-03T16:45:18;4.10;99.90
8261;DHT22;64115;50.170;8.242;2023-03-03T16:48:05;4.00;99.90
8261;DHT22;64115;50.170;8.242;2023-03-03T16:50:41;4.00;99.90